sensor_id;sensor_type;location;lat;lon;timestamp;pressure;altitude;pressure_sealevel;temperature;humidity
61039;BME280;46919;45.816;3.104;2022-11-20T00:01:33;97771.19;;;6.14;77.55
61039;BME280;46919;45.816;3.104;2022-11-20T00:03:58;97776.28;;;6.09;77.90
61039;BME280;46919;45.816;3.104;2022-11-20T00:06:26;97786.16;;;6.02;78.29
61039;BME280;46919;45.816;3.104;2022-11-20T00:08:55;97784.91;;;5.97;78.59
61039;BME280;46919;45.816;3.104;2022-11-20T00:11:23;97785.25;;;5.94;78.85
61039;BME280;46919;45.816;3.104;2022-11-20T00:13:50;97786.94;;;5.95;78.70
61039;BME280;46919;45.816;3.104;2022-11-20T00:16:19;97778.66;;;5.90;78.64
61039;BME280;46919;45.816;3.104;2022-11-20T00:18:45;97791.47;;;5.95;78.60
61039;BME280;46919;45.816;3.104;2022-11-20T00:21:19;97781.19;;;5.98;78.55
61039;BME280;46919;45.816;3.104;2022-11-20T00:23:44;97790.19;;;5.91;78.85
61039;BME280;46919;45.816;3.104;2022-11-20T00:26:13;97785.66;;;5.91;78.91
61039;BME280;46919;45.816;3.104;2022-11-20T00:28:38;97785.22;;;5.88;79.04
61039;BME280;46919;45.816;3.104;2022-11-20T00:31:06;97790.41;;;5.89;79.04
61039;BME280;46919;45.816;3.104;2022-11-20T00:33:33;97795.34;;;5.86;79.40
61039;BME280;46919;45.816;3.104;2022-11-20T00:36:04;97799.63;;;5.80;79.80
61039;BME280;46919;45.816;3.104;2022-11-20T00:38:33;97804.34;;;5.78;80.38
61039;BME280;46919;45.816;3.104;2022-11-20T00:41:01;97805.38;;;5.77;80.25
61039;BME280;46919;45.816;3.104;2022-11-20T00:43:27;97805.38;;;5.77;80.35
61039;BME280;46919;45.816;3.104;2022-11-20T00:46:04;97811.50;;;5.71;80.51
61039;BME280;46919;45.816;3.104;2022-11-20T00:48:30;97806.53;;;5.68;80.58
61039;BME280;46919;45.816;3.104;2022-11-20T00:50:56;97811.66;;;5.62;80.59
61039;BME280;46919;45.816;3.104;2022-11-20T00:53:22;97805.63;;;5.54;80.83
61039;BME280;46919;45.816;3.104;2022-11-20T00:55:54;97813.03;;;5.52;80.76
61039;BME280;46919;45.816;3.104;2022-11-20T00:58:21;97804.75;;;5.47;80.96
61039;BME280;46919;45.816;3.104;2022-11-20T01:00:46;97800.63;;;5.44;81.10
61039;BME280;46919;45.816;3.104;2022-11-20T01:03:11;97807.97;;;5.35;81.32
61039;BME280;46919;45.816;3.104;2022-11-20T01:05:37;97810.78;;;5.27;81.41
61039;BME280;46919;45.816;3.104;2022-11-20T01:08:02;97810.06;;;5.18;82.11
61039;BME280;46919;45.816;3.104;2022-11-20T01:10:28;97816.00;;;5.14;82.28
61039;BME280;46919;45.816;3.104;2022-11-20T01:12:54;97816.84;;;5.14;81.92
61039;BME280;46919;45.816;3.104;2022-11-20T01:15:39;97802.78;;;5.12;81.65
61039;BME280;46919;45.816;3.104;2022-11-20T01:18:04;97805.28;;;5.14;81.50
61039;BME280;46919;45.816;3.104;2022-11-20T01:20:34;97806.81;;;5.23;80.33
61039;BME280;46919;45.816;3.104;2022-11-20T01:23:00;97809.50;;;5.23;80.15
61039;BME280;46919;45.816;3.104;2022-11-20T01:25:26;97804.59;;;5.26;79.62
61039;BME280;46919;45.816;3.104;2022-11-20T01:27:51;97807.66;;;5.23;79.61
61039;BME280;46919;45.816;3.104;2022-11-20T01:30:16;97816.31;;;5.25;79.05
61039;BME280;46919;45.816;3.104;2022-11-20T01:32:42;97811.84;;;5.33;78.06
61039;BME280;46919;45.816;3.104;2022-11-20T01:35:07;97806.25;;;5.28;77.98
61039;BME280;46919;45.816;3.104;2022-11-20T01:37:34;97815.22;;;5.20;78.24
61039;BME280;46919;45.816;3.104;2022-11-20T01:40:00;97807.13;;;5.13;78.60
61039;BME280;46919;45.816;3.104;2022-11-20T01:42:25;97820.53;;;5.13;78.67
61039;BME280;46919;45.816;3.104;2022-11-20T01:51:17;97815.19;;;5.13;77.79
61039;BME280;46919;45.816;3.104;2022-11-20T01:53:45;97813.50;;;5.12;77.72
61039;BME280;46919;45.816;3.104;2022-11-20T01:56:12;97817.84;;;5.13;77.61
61039;BME280;46919;45.816;3.104;2022-11-20T01:58:45;97814.31;;;5.06;77.69
61039;BME280;46919;45.816;3.104;2022-11-20T02:01:12;97823.28;;;4.98;78.16
61039;BME280;46919;45.816;3.104;2022-11-20T02:03:39;97819.19;;;5.02;77.82
61039;BME280;46919;45.816;3.104;2022-11-20T02:06:16;97819.00;;;5.04;77.75
61039;BME280;46919;45.816;3.104;2022-11-20T02:08:44;97834.06;;;5.05;77.70
61039;BME280;46919;45.816;3.104;2022-11-20T02:11:09;97829.84;;;4.96;77.83
61039;BME280;46919;45.816;3.104;2022-11-20T02:13:35;97835.56;;;4.93;78.19
61039;BME280;46919;45.816;3.104;2022-11-20T02:18:47;97830.78;;;4.88;78.37
61039;BME280;46919;45.816;3.104;2022-11-20T02:24:02;97830.16;;;4.86;78.29
61039;BME280;46919;45.816;3.104;2022-11-20T02:26:30;97837.75;;;4.82;78.10
61039;BME280;46919;45.816;3.104;2022-11-20T02:28:58;97825.63;;;4.86;77.94
61039;BME280;46919;45.816;3.104;2022-11-20T02:31:24;97820.00;;;4.81;77.89
61039;BME280;46919;45.816;3.104;2022-11-20T02:33:57;97814.41;;;4.76;78.29
61039;BME280;46919;45.816;3.104;2022-11-20T02:36:24;97806.56;;;4.75;78.11
61039;BME280;46919;45.816;3.104;2022-11-20T02:38:51;97807.31;;;4.68;78.16
61039;BME280;46919;45.816;3.104;2022-11-20T02:41:17;97811.84;;;4.68;77.93
61039;BME280;46919;45.816;3.104;2022-11-20T02:43:42;97806.41;;;4.61;78.33
61039;BME280;46919;45.816;3.104;2022-11-20T02:46:08;97806.88;;;4.65;77.52
61039;BME280;46919;45.816;3.104;2022-11-20T02:48:33;97802.16;;;4.67;77.05
61039;BME280;46919;45.816;3.104;2022-11-20T02:50:59;97809.56;;;4.65;76.86
61039;BME280;46919;45.816;3.104;2022-11-20T02:53:24;97807.88;;;4.64;77.31
61039;BME280;46919;45.816;3.104;2022-11-20T02:55:50;97804.94;;;4.59;77.23
61039;BME280;46919;45.816;3.104;2022-11-20T02:58:15;97809.75;;;4.63;75.98
61039;BME280;46919;45.816;3.104;2022-11-20T03:00:40;97812.78;;;4.60;75.88
61039;BME280;46919;45.816;3.104;2022-11-20T03:03:06;97811.69;;;4.54;76.26
61039;BME280;46919;45.816;3.104;2022-11-20T03:05:31;97809.13;;;4.46;76.40
61039;BME280;46919;45.816;3.104;2022-11-20T03:07:57;97809.06;;;4.40;76.69
61039;BME280;46919;45.816;3.104;2022-11-20T03:10:22;97803.88;;;4.23;77.77
61039;BME280;46919;45.816;3.104;2022-11-20T03:12:52;97811.19;;;4.14;78.29
61039;BME280;46919;45.816;3.104;2022-11-20T03:15:18;97811.94;;;4.08;78.62
61039;BME280;46919;45.816;3.104;2022-11-20T03:17:43;97814.31;;;3.88;79.05
61039;BME280;46919;45.816;3.104;2022-11-20T03:20:09;97812.47;;;3.74;80.08
61039;BME280;46919;45.816;3.104;2022-11-20T03:22:34;97814.69;;;3.70;80.62
61039;BME280;46919;45.816;3.104;2022-11-20T03:24:59;97816.06;;;3.66;80.82
61039;BME280;46919;45.816;3.104;2022-11-20T03:27:25;97819.09;;;3.63;80.69
61039;BME280;46919;45.816;3.104;2022-11-20T03:29:50;97821.75;;;3.63;80.59
61039;BME280;46919;45.816;3.104;2022-11-20T03:32:15;97817.19;;;3.57;80.70
61039;BME280;46919;45.816;3.104;2022-11-20T03:34:41;97829.16;;;3.23;81.88
61039;BME280;46919;45.816;3.104;2022-11-20T03:37:06;97826.91;;;3.12;82.16
61039;BME280;46919;45.816;3.104;2022-11-20T03:39:32;97828.94;;;3.10;82.98
61039;BME280;46919;45.816;3.104;2022-11-20T03:41:57;97828.25;;;3.07;83.01
61039;BME280;46919;45.816;3.104;2022-11-20T03:44:22;97828.94;;;3.10;82.87
61039;BME280;46919;45.816;3.104;2022-11-20T03:46:48;97827.38;;;2.92;83.36
61039;BME280;46919;45.816;3.104;2022-11-20T03:49:13;97831.13;;;2.83;83.56
61039;BME280;46919;45.816;3.104;2022-11-20T03:51:38;97835.31;;;2.77;83.85
61039;BME280;46919;45.816;3.104;2022-11-20T03:54:06;97838.25;;;2.59;84.17
61039;BME280;46919;45.816;3.104;2022-11-20T03:56:34;97839.03;;;2.37;85.12
61039;BME280;46919;45.816;3.104;2022-11-20T03:59:00;97829.41;;;2.27;85.17
61039;BME280;46919;45.816;3.104;2022-11-20T04:01:29;97831.06;;;2.28;85.94
61039;BME280;46919;45.816;3.104;2022-11-20T04:03:55;97837.97;;;2.14;85.19
61039;BME280;46919;45.816;3.104;2022-11-20T04:06:30;97847.66;;;1.99;85.75
61039;BME280;46919;45.816;3.104;2022-11-20T04:08:57;97845.22;;;1.89;85.06
61039;BME280;46919;45.816;3.104;2022-11-20T04:11:30;97834.41;;;1.74;86.11
61039;BME280;46919;45.816;3.104;2022-11-20T04:14:01;97838.25;;;1.55;86.77
61039;BME280;46919;45.816;3.104;2022-11-20T04:16:29;97836.28;;;1.41;87.47
61039;BME280;46919;45.816;3.104;2022-11-20T04:18:57;97838.28;;;1.47;87.03
61039;BME280;46919;45.816;3.104;2022-11-20T04:21:24;97838.63;;;1.44;87.10
61039;BME280;46919;45.816;3.104;2022-11-20T04:23:50;97834.81;;;1.30;87.53
61039;BME280;46919;45.816;3.104;2022-11-20T04:26:16;97830.97;;;1.16;87.86
61039;BME280;46919;45.816;3.104;2022-11-20T04:28:41;97825.00;;;1.31;88.10
61039;BME280;46919;45.816;3.104;2022-11-20T04:31:10;97824.16;;;1.30;87.99
61039;BME280;46919;45.816;3.104;2022-11-20T04:33:36;97823.16;;;1.31;87.92
61039;BME280;46919;45.816;3.104;2022-11-20T04:36:06;97817.31;;;1.36;88.35
61039;BME280;46919;45.816;3.104;2022-11-20T04:38:32;97816.66;;;1.17;88.38
61039;BME280;46919;45.816;3.104;2022-11-20T04:40:59;97816.66;;;1.42;88.04
61039;BME280;46919;45.816;3.104;2022-11-20T04:43:25;97815.97;;;1.48;88.41
61039;BME280;46919;45.816;3.104;2022-11-20T04:45:52;97824.47;;;1.43;88.54
61039;BME280;46919;45.816;3.104;2022-11-20T04:48:17;97822.47;;;1.37;88.03
61039;BME280;46919;45.816;3.104;2022-11-20T04:50:43;97824.16;;;1.38;88.80
61039;BME280;46919;45.816;3.104;2022-11-20T04:53:08;97829.50;;;1.30;89.11
61039;BME280;46919;45.816;3.104;2022-11-20T04:55:33;97826.66;;;1.15;89.31
61039;BME280;46919;45.816;3.104;2022-11-20T04:57:59;97823.00;;;1.08;91.23
61039;BME280;46919;45.816;3.104;2022-11-20T05:00:24;97829.16;;;1.08;90.34
61039;BME280;46919;45.816;3.104;2022-11-20T05:02:49;97826.66;;;1.07;90.74
61039;BME280;46919;45.816;3.104;2022-11-20T05:05:15;97829.97;;;1.01;90.79
61039;BME280;46919;45.816;3.104;2022-11-20T05:07:40;97826.81;;;0.89;90.89
61039;BME280;46919;45.816;3.104;2022-11-20T05:10:06;97825.97;;;0.80;91.85
61039;BME280;46919;45.816;3.104;2022-11-20T05:12:31;97829.44;;;0.72;91.33
61039;BME280;46919;45.816;3.104;2022-11-20T05:14:57;97831.59;;;0.69;91.64
61039;BME280;46919;45.816;3.104;2022-11-20T05:17:22;97821.59;;;0.54;92.77
61039;BME280;46919;45.816;3.104;2022-11-20T05:19:47;97821.91;;;0.51;92.38
61039;BME280;46919;45.816;3.104;2022-11-20T05:22:13;97816.59;;;0.43;92.54
61039;BME280;46919;45.816;3.104;2022-11-20T05:24:38;97822.53;;;0.29;93.33
61039;BME280;46919;45.816;3.104;2022-11-20T05:27:03;97818.69;;;0.31;93.83
61039;BME280;46919;45.816;3.104;2022-11-20T05:29:29;97816.38;;;0.28;93.42
61039;BME280;46919;45.816;3.104;2022-11-20T05:31:54;97827.13;;;0.18;93.21
61039;BME280;46919;45.816;3.104;2022-11-20T05:34:20;97828.41;;;0.06;94.14
61039;BME280;46919;45.816;3.104;2022-11-20T05:36:45;97831.59;;;0.10;94.36
61039;BME280;46919;45.816;3.104;2022-11-20T05:39:10;97827.38;;;0.42;92.43
61039;BME280;46919;45.816;3.104;2022-11-20T05:41:36;97828.53;;;0.47;91.36
61039;BME280;46919;45.816;3.104;2022-11-20T05:44:01;97832.78;;;0.24;92.17
61039;BME280;46919;45.816;3.104;2022-11-20T05:46:27;97834.09;;;0.11;92.97
61039;BME280;46919;45.816;3.104;2022-11-20T05:48:52;97836.97;;;0.26;93.57
61039;BME280;46919;45.816;3.104;2022-11-20T05:51:18;97832.06;;;0.48;92.34
61039;BME280;46919;45.816;3.104;2022-11-20T05:53:44;97822.59;;;0.53;92.04
61039;BME280;46919;45.816;3.104;2022-11-20T05:56:13;97827.84;;;0.29;92.64
61039;BME280;46919;45.816;3.104;2022-11-20T05:58:39;97834.88;;;0.04;93.09
61039;BME280;46919;45.816;3.104;2022-11-20T06:01:14;97829.78;;;-0.16;94.04
61039;BME280;46919;45.816;3.104;2022-11-20T06:03:41;97831.38;;;-0.31;94.86
61039;BME280;46919;45.816;3.104;2022-11-20T06:06:08;97831.84;;;-0.36;95.60
61039;BME280;46919;45.816;3.104;2022-11-20T06:08:34;97831.81;;;-0.44;95.27
61039;BME280;46919;45.816;3.104;2022-11-20T06:11:04;97832.28;;;-0.49;95.37
61039;BME280;46919;45.816;3.104;2022-11-20T06:13:30;97833.03;;;-0.30;95.90
61039;BME280;46919;45.816;3.104;2022-11-20T06:15:55;97826.56;;;-0.02;93.95
61039;BME280;46919;45.816;3.104;2022-11-20T06:18:21;97833.25;;;-0.24;93.93
61039;BME280;46919;45.816;3.104;2022-11-20T06:20:46;97840.75;;;-0.45;95.31
61039;BME280;46919;45.816;3.104;2022-11-20T06:23:12;97831.00;;;-0.37;94.78
61039;BME280;46919;45.816;3.104;2022-11-20T06:25:41;97841.59;;;-0.45;94.96
61039;BME280;46919;45.816;3.104;2022-11-20T06:28:08;97833.69;;;-0.63;95.38
61039;BME280;46919;45.816;3.104;2022-11-20T06:30:35;97844.91;;;-0.69;95.49
61039;BME280;46919;45.816;3.104;2022-11-20T06:33:01;97840.66;;;-0.80;95.68
61039;BME280;46919;45.816;3.104;2022-11-20T06:35:26;97835.50;;;-0.81;96.04
61039;BME280;46919;45.816;3.104;2022-11-20T06:37:52;97835.50;;;-0.81;96.44
61039;BME280;46919;45.816;3.104;2022-11-20T06:40:17;97834.78;;;-0.47;96.05
61039;BME280;46919;45.816;3.104;2022-11-20T06:42:42;97827.88;;;-0.32;95.26
61039;BME280;46919;45.816;3.104;2022-11-20T06:45:08;97828.09;;;-0.51;94.33
61039;BME280;46919;45.816;3.104;2022-11-20T06:47:34;97824.44;;;-0.59;95.08
61039;BME280;46919;45.816;3.104;2022-11-20T06:49:59;97831.00;;;-0.37;94.70
61039;BME280;46919;45.816;3.104;2022-11-20T06:52:25;97830.72;;;-0.60;94.17
61039;BME280;46919;45.816;3.104;2022-11-20T06:54:50;97829.09;;;-0.79;95.01
61039;BME280;46919;45.816;3.104;2022-11-20T06:57:15;97832.97;;;-0.91;95.21
61039;BME280;46919;45.816;3.104;2022-11-20T06:59:41;97840.69;;;-0.98;96.17
61039;BME280;46919;45.816;3.104;2022-11-20T07:02:10;97847.28;;;-1.02;96.72
61039;BME280;46919;45.816;3.104;2022-11-20T07:04:36;97841.97;;;-0.84;97.16
61039;BME280;46919;45.816;3.104;2022-11-20T07:07:01;97847.81;;;-0.80;96.29
61039;BME280;46919;45.816;3.104;2022-11-20T07:09:27;97845.41;;;-0.92;96.15
61039;BME280;46919;45.816;3.104;2022-11-20T07:11:52;97849.94;;;-1.02;96.59
61039;BME280;46919;45.816;3.104;2022-11-20T07:14:17;97843.22;;;-0.70;97.20
61039;BME280;46919;45.816;3.104;2022-11-20T07:16:43;97844.41;;;-0.46;95.70
61039;BME280;46919;45.816;3.104;2022-11-20T07:19:08;97844.59;;;-0.66;95.30
61039;BME280;46919;45.816;3.104;2022-11-20T07:21:33;97847.28;;;-0.84;95.77
61039;BME280;46919;45.816;3.104;2022-11-20T07:23:59;97837.81;;;-0.86;96.16
61039;BME280;46919;45.816;3.104;2022-11-20T07:26:24;97836.53;;;-0.82;97.03
61039;BME280;46919;45.816;3.104;2022-11-20T07:28:49;97834.69;;;-0.82;97.13
61039;BME280;46919;45.816;3.104;2022-11-20T07:31:15;97842.19;;;-0.77;97.22
61039;BME280;46919;45.816;3.104;2022-11-20T07:33:40;97841.22;;;-0.76;97.41
61039;BME280;46919;45.816;3.104;2022-11-20T07:36:06;97839.91;;;-0.72;96.79
61039;BME280;46919;45.816;3.104;2022-11-20T07:38:31;97845.81;;;-0.78;96.74
61039;BME280;46919;45.816;3.104;2022-11-20T07:40:57;97835.72;;;-0.75;97.06
61039;BME280;46919;45.816;3.104;2022-11-20T07:43:23;97845.97;;;-0.62;97.25
61039;BME280;46919;45.816;3.104;2022-11-20T07:45:49;97853.78;;;-0.34;96.42
61039;BME280;46919;45.816;3.104;2022-11-20T07:48:14;97842.06;;;-0.23;95.25
61039;BME280;46919;45.816;3.104;2022-11-20T07:50:40;97843.38;;;0.07;95.27
61039;BME280;46919;45.816;3.104;2022-11-20T07:53:05;97846.06;;;0.24;94.08
61039;BME280;46919;45.816;3.104;2022-11-20T07:55:31;97847.13;;;0.39;93.41
61039;BME280;46919;45.816;3.104;2022-11-20T07:57:57;97851.69;;;0.63;93.90
61039;BME280;46919;45.816;3.104;2022-11-20T08:00:23;97857.56;;;0.75;92.87
61039;BME280;46919;45.816;3.104;2022-11-20T08:02:49;97865.22;;;0.78;92.54
61039;BME280;46919;45.816;3.104;2022-11-20T08:05:14;97868.84;;;0.77;92.66
61039;BME280;46919;45.816;3.104;2022-11-20T08:07:41;97878.34;;;0.80;93.25
61039;BME280;46919;45.816;3.104;2022-11-20T08:10:09;97868.19;;;0.83;93.04
61039;BME280;46919;45.816;3.104;2022-11-20T08:12:34;97875.53;;;0.98;93.49
61039;BME280;46919;45.816;3.104;2022-11-20T08:15:18;97866.25;;;1.10;92.49
61039;BME280;46919;45.816;3.104;2022-11-20T08:17:44;97874.41;;;1.17;92.56
61039;BME280;46919;45.816;3.104;2022-11-20T08:20:10;97870.75;;;1.26;92.26
61039;BME280;46919;45.816;3.104;2022-11-20T08:22:35;97873.75;;;1.56;91.76
61039;BME280;46919;45.816;3.104;2022-11-20T08:25:01;97874.53;;;1.73;90.75
61039;BME280;46919;45.816;3.104;2022-11-20T08:27:26;97881.88;;;1.87;90.19
61039;BME280;46919;45.816;3.104;2022-11-20T08:29:52;97892.31;;;2.05;89.23
61039;BME280;46919;45.816;3.104;2022-11-20T08:32:17;97884.44;;;2.20;88.69
61039;BME280;46919;45.816;3.104;2022-11-20T08:34:43;97887.91;;;2.29;87.70
61039;BME280;46919;45.816;3.104;2022-11-20T08:37:08;97890.72;;;2.35;88.11
61039;BME280;46919;45.816;3.104;2022-11-20T08:39:33;97888.66;;;2.46;87.33
61039;BME280;46919;45.816;3.104;2022-11-20T08:41:59;97879.63;;;2.55;86.88
61039;BME280;46919;45.816;3.104;2022-11-20T08:44:24;97872.59;;;2.62;86.79
61039;BME280;46919;45.816;3.104;2022-11-20T08:46:49;97876.22;;;2.69;86.37
61039;BME280;46919;45.816;3.104;2022-11-20T08:49:15;97886.19;;;2.76;86.09
61039;BME280;46919;45.816;3.104;2022-11-20T08:51:41;97897.00;;;2.82;85.92
61039;BME280;46919;45.816;3.104;2022-11-20T08:54:07;97893.78;;;2.87;85.88
61039;BME280;46919;45.816;3.104;2022-11-20T08:56:33;97893.41;;;2.98;85.88
61039;BME280;46919;45.816;3.104;2022-11-20T08:58:59;97879.66;;;3.10;85.76
61039;BME280;46919;45.816;3.104;2022-11-20T09:01:25;97893.94;;;3.17;85.70
61039;BME280;46919;45.816;3.104;2022-11-20T09:03:51;97897.94;;;3.21;85.12
61039;BME280;46919;45.816;3.104;2022-11-20T09:06:17;97901.53;;;3.28;84.85
61039;BME280;46919;45.816;3.104;2022-11-20T09:08:43;97897.16;;;3.35;83.89
61039;BME280;46919;45.816;3.104;2022-11-20T09:11:09;97891.13;;;3.41;83.52
61039;BME280;46919;45.816;3.104;2022-11-20T09:13:35;97889.38;;;3.49;82.97
61039;BME280;46919;45.816;3.104;2022-11-20T09:18:29;97890.25;;;3.64;81.90
61039;BME280;46919;45.816;3.104;2022-11-20T09:21:01;97885.84;;;3.71;82.08
61039;BME280;46919;45.816;3.104;2022-11-20T09:23:30;97888.63;;;3.78;81.23
61039;BME280;46919;45.816;3.104;2022-11-20T09:25:55;97884.50;;;3.90;80.98
61039;BME280;46919;45.816;3.104;2022-11-20T09:28:25;97882.38;;;4.01;80.55
61039;BME280;46919;45.816;3.104;2022-11-20T09:30:51;97883.97;;;4.10;80.14
61039;BME280;46919;45.816;3.104;2022-11-20T09:33:17;97887.84;;;4.22;80.00
61039;BME280;46919;45.816;3.104;2022-11-20T09:35:43;97884.63;;;4.27;79.49
61039;BME280;46919;45.816;3.104;2022-11-20T09:38:09;97877.78;;;4.39;78.73
61039;BME280;46919;45.816;3.104;2022-11-20T09:40:38;97875.03;;;4.47;78.53
61039;BME280;46919;45.816;3.104;2022-11-20T09:43:28;97875.19;;;4.61;77.64
61039;BME280;46919;45.816;3.104;2022-11-20T09:46:11;97874.06;;;4.70;76.65
61039;BME280;46919;45.816;3.104;2022-11-20T09:54:18;97852.69;;;5.13;75.18
61039;BME280;46919;45.816;3.104;2022-11-20T09:56:46;97841.22;;;5.19;75.16
61039;BME280;46919;45.816;3.104;2022-11-20T09:59:27;97830.72;;;5.24;74.25
61039;BME280;46919;45.816;3.104;2022-11-20T10:01:55;97828.19;;;5.16;74.25
61039;BME280;46919;45.816;3.104;2022-11-20T10:04:22;97818.19;;;5.03;74.00
61039;BME280;46919;45.816;3.104;2022-11-20T10:07:01;97816.19;;;5.12;72.38
61039;BME280;46919;45.816;3.104;2022-11-20T10:09:39;97822.88;;;5.23;71.31
61039;BME280;46919;45.816;3.104;2022-11-20T10:14:39;97810.81;;;5.34;71.38
61039;BME280;46919;45.816;3.104;2022-11-20T10:22:52;97787.94;;;5.59;70.10
61039;BME280;46919;45.816;3.104;2022-11-20T10:25:20;97786.75;;;5.69;68.73
61039;BME280;46919;45.816;3.104;2022-11-20T10:30:14;97782.53;;;5.88;68.69
61039;BME280;46919;45.816;3.104;2022-11-20T10:32:43;97769.84;;;5.96;68.59
61039;BME280;46919;45.816;3.104;2022-11-20T10:37:46;97766.81;;;6.13;68.31
61039;BME280;46919;45.816;3.104;2022-11-20T10:43:08;97752.25;;;6.35;67.69
61039;BME280;46919;45.816;3.104;2022-11-20T10:48:27;97757.28;;;6.52;67.89
61039;BME280;46919;45.816;3.104;2022-11-20T10:56:10;97722.81;;;6.69;66.10
61039;BME280;46919;45.816;3.104;2022-11-20T10:59:04;97723.41;;;6.64;66.04
61039;BME280;46919;45.816;3.104;2022-11-20T11:01:40;97718.06;;;6.78;65.77
61039;BME280;46919;45.816;3.104;2022-11-20T11:07:09;97710.22;;;6.83;64.39
61039;BME280;46919;45.816;3.104;2022-11-20T11:09:39;97716.00;;;6.86;64.08
61039;BME280;46919;45.816;3.104;2022-11-20T11:12:08;97710.66;;;6.93;64.10
61039;BME280;46919;45.816;3.104;2022-11-20T11:14:48;97705.69;;;6.97;63.59
61039;BME280;46919;45.816;3.104;2022-11-20T11:22:44;97700.13;;;7.25;64.00
61039;BME280;46919;45.816;3.104;2022-11-20T11:25:40;97700.06;;;7.58;63.76
61039;BME280;46919;45.816;3.104;2022-11-20T11:28:24;97699.56;;;7.82;63.53
61039;BME280;46919;45.816;3.104;2022-11-20T11:30:51;97702.25;;;7.82;64.32
61039;BME280;46919;45.816;3.104;2022-11-20T11:33:25;97698.31;;;7.91;64.22
61039;BME280;46919;45.816;3.104;2022-11-20T11:35:56;97690.97;;;8.11;64.35
61039;BME280;46919;45.816;3.104;2022-11-20T11:38:43;97690.50;;;8.21;63.22
61039;BME280;46919;45.816;3.104;2022-11-20T11:41:15;97687.09;;;8.01;63.34
61039;BME280;46919;45.816;3.104;2022-11-20T11:43:51;97676.19;;;7.82;64.42
61039;BME280;46919;45.816;3.104;2022-11-20T11:46:36;97676.63;;;7.79;63.85
61039;BME280;46919;45.816;3.104;2022-11-20T11:54:10;97661.50;;;7.78;64.97
61039;BME280;46919;45.816;3.104;2022-11-20T11:56:38;97653.00;;;7.81;65.54
61039;BME280;46919;45.816;3.104;2022-11-20T11:59:06;97642.03;;;7.83;65.97
61039;BME280;46919;45.816;3.104;2022-11-20T12:01:50;97643.06;;;7.82;65.99
61039;BME280;46919;45.816;3.104;2022-11-20T12:04:43;97654.88;;;7.80;66.56
61039;BME280;46919;45.816;3.104;2022-11-20T12:09:54;97651.56;;;7.85;66.46
61039;BME280;46919;45.816;3.104;2022-11-20T12:12:25;97640.81;;;7.85;66.28
61039;BME280;46919;45.816;3.104;2022-11-20T12:14:54;97631.28;;;7.83;66.18
61039;BME280;46919;45.816;3.104;2022-11-20T12:17:20;97638.97;;;7.79;66.54
61039;BME280;46919;45.816;3.104;2022-11-20T12:19:45;97635.41;;;7.78;66.76
61039;BME280;46919;45.816;3.104;2022-11-20T12:25:34;97637.69;;;7.82;67.58
61039;BME280;46919;45.816;3.104;2022-11-20T12:30:19;97638.69;;;7.94;67.30
61039;BME280;46919;45.816;3.104;2022-11-20T12:43:26;97623.88;;;7.71;67.09
61039;BME280;46919;45.816;3.104;2022-11-20T12:46:23;97610.88;;;7.61;67.61
61039;BME280;46919;45.816;3.104;2022-11-20T12:49:34;97614.00;;;7.58;67.28
61039;BME280;46919;45.816;3.104;2022-11-20T12:52:20;97604.66;;;7.61;67.77
61039;BME280;46919;45.816;3.104;2022-11-20T12:55:25;97604.25;;;7.71;68.13
61039;BME280;46919;45.816;3.104;2022-11-20T13:00:20;97621.75;;;7.87;68.11
61039;BME280;46919;45.816;3.104;2022-11-20T13:08:10;97611.22;;;7.85;68.96
61039;BME280;46919;45.816;3.104;2022-11-20T13:10:49;97619.28;;;7.85;69.91
61039;BME280;46919;45.816;3.104;2022-11-20T13:13:24;97622.59;;;7.80;71.12
61039;BME280;46919;45.816;3.104;2022-11-20T13:15:53;97622.19;;;7.84;71.48
61039;BME280;46919;45.816;3.104;2022-11-20T13:18:20;97626.50;;;7.85;72.01
61039;BME280;46919;45.816;3.104;2022-11-20T13:20:46;97622.56;;;7.87;73.05
61039;BME280;46919;45.816;3.104;2022-11-20T13:23:23;97625.06;;;7.89;74.08
61039;BME280;46919;45.816;3.104;2022-11-20T13:25:49;97610.56;;;7.90;75.10
61039;BME280;46919;45.816;3.104;2022-11-20T13:30:51;97601.88;;;7.88;76.13
61039;BME280;46919;45.816;3.104;2022-11-20T13:33:28;97592.75;;;7.89;76.10
61039;BME280;46919;45.816;3.104;2022-11-20T13:36:21;97591.53;;;7.85;77.56
61039;BME280;46919;45.816;3.104;2022-11-20T13:38:49;97579.56;;;7.80;78.34
61039;BME280;46919;45.816;3.104;2022-11-20T13:41:30;97562.78;;;7.78;78.01
61039;BME280;46919;45.816;3.104;2022-11-20T13:44:39;97563.00;;;7.77;78.16
61039;BME280;46919;45.816;3.104;2022-11-20T13:47:20;97570.66;;;7.80;78.02
61039;BME280;46919;45.816;3.104;2022-11-20T13:49:47;97572.09;;;7.83;78.21
61039;BME280;46919;45.816;3.104;2022-11-20T13:55:14;97560.22;;;7.97;78.72
61039;BME280;46919;45.816;3.104;2022-11-20T14:00:28;97573.66;;;8.29;77.90
61039;BME280;46919;45.816;3.104;2022-11-20T14:05:38;97552.69;;;8.44;77.42
61039;BME280;46919;45.816;3.104;2022-11-20T14:08:06;97556.59;;;8.42;77.73
61039;BME280;46919;45.816;3.104;2022-11-20T14:10:37;97563.44;;;8.44;78.25
61039;BME280;46919;45.816;3.104;2022-11-20T14:13:30;97560.09;;;8.49;78.34
61039;BME280;46919;45.816;3.104;2022-11-20T14:15:59;97561.06;;;8.55;77.95
61039;BME280;46919;45.816;3.104;2022-11-20T14:18:26;97564.56;;;8.62;76.92
61039;BME280;46919;45.816;3.104;2022-11-20T14:20:52;97571.81;;;8.61;76.86
61039;BME280;46919;45.816;3.104;2022-11-20T14:23:28;97581.16;;;8.59;76.75
61039;BME280;46919;45.816;3.104;2022-11-20T14:25:55;97583.25;;;8.57;78.00
61039;BME280;46919;45.816;3.104;2022-11-20T14:28:28;97587.78;;;8.56;77.59
61039;BME280;46919;45.816;3.104;2022-11-20T14:30:56;97573.34;;;8.50;77.41
61039;BME280;46919;45.816;3.104;2022-11-20T14:33:22;97572.06;;;8.53;77.46
61039;BME280;46919;45.816;3.104;2022-11-20T14:35:54;97574.00;;;8.71;76.94
61039;BME280;46919;45.816;3.104;2022-11-20T14:38:31;97568.94;;;8.81;76.25
61039;BME280;46919;45.816;3.104;2022-11-20T14:41:17;97561.69;;;8.82;76.05
61039;BME280;46919;45.816;3.104;2022-11-20T14:43:46;97560.25;;;8.79;76.29
61039;BME280;46919;45.816;3.104;2022-11-20T14:46:12;97547.81;;;8.78;76.67
61039;BME280;46919;45.816;3.104;2022-11-20T14:48:54;97536.88;;;8.73;77.79
61039;BME280;46919;45.816;3.104;2022-11-20T14:51:39;97531.19;;;8.63;77.87
61039;BME280;46919;45.816;3.104;2022-11-20T14:54:15;97536.78;;;8.61;78.56